createdAt,value
2022-09-16T00:00:18.866Z,97.06
2022-09-16T00:03:21.038Z,97.48
2022-09-16T00:06:29.363Z,97.01
2022-09-16T00:09:31.544Z,97.25
2022-09-16T00:12:33.805Z,97.41
2022-09-16T00:15:36.512Z,96.56
2022-09-16T00:18:38.781Z,96.87
2022-09-16T00:21:41.020Z,97.01
2022-09-16T00:24:50.092Z,96.84
2022-09-16T00:27:52.229Z,96.87
2022-09-16T00:30:54.483Z,96.83
2022-09-16T00:33:56.681Z,97.38
2022-09-16T00:36:58.890Z,97.00
2022-09-16T00:40:01.231Z,97.03
2022-09-16T00:43:03.489Z,96.99
2022-09-16T00:46:05.964Z,96.90
2022-09-16T00:49:30.653Z,97.22
2022-09-16T00:52:33.436Z,96.94
2022-09-16T00:55:37.657Z,97.40
2022-09-16T00:58:46.545Z,97.28
2022-09-16T01:01:49.627Z,97.48
2022-09-16T01:04:57.979Z,97.27
2022-09-16T01:08:00.457Z,97.43
2022-09-16T01:11:02.604Z,97.81
2022-09-16T01:14:24.449Z,98.28
2022-09-16T01:18:00.746Z,99.06
2022-09-16T01:21:39.108Z,98.94
2022-09-16T01:25:12.181Z,98.97
2022-09-16T01:28:44.542Z,98.75
2022-09-16T01:32:23.455Z,99.02
2022-09-16T01:35:43.625Z,98.48
2022-09-16T01:38:48.695Z,98.06
2022-09-16T01:41:53.996Z,97.53
2022-09-16T01:45:05.271Z,98.17
2022-09-16T01:48:37.475Z,97.40
2022-09-16T01:52:05.469Z,97.55
2022-09-16T01:55:13.932Z,97.27
2022-09-16T01:58:24.412Z,97.52
2022-09-16T02:01:55.186Z,97.47
2022-09-16T02:05:00.086Z,97.36
2022-09-16T02:08:09.427Z,97.05
2022-09-16T02:11:15.772Z,96.90
2022-09-16T02:14:24.929Z,97.18
2022-09-16T02:17:32.240Z,96.64
2022-09-16T02:20:39.869Z,96.90
2022-09-16T02:23:48.917Z,96.91
2022-09-16T02:27:00.780Z,97.19
2022-09-16T02:30:12.295Z,97.05
2022-09-16T02:33:17.666Z,97.16
2022-09-16T02:36:25.793Z,97.26
2022-09-16T02:39:33.883Z,97.51
2022-09-16T02:42:36.322Z,97.48
2022-09-16T02:45:53.038Z,97.71
2022-09-16T02:49:33.776Z,97.78
2022-09-16T02:53:02.436Z,98.19
2022-09-16T02:56:42.760Z,97.79
2022-09-16T02:59:45.346Z,97.60
2022-09-16T03:02:47.887Z,97.37
2022-09-16T03:06:08.532Z,97.71
2022-09-16T03:09:12.714Z,98.06
2022-09-16T03:12:25.635Z,98.50
2022-09-16T03:15:35.876Z,98.35
2022-09-16T03:19:00.492Z,97.95
2022-09-16T03:22:11.817Z,97.74
2022-09-16T03:25:23.939Z,97.95
2022-09-16T03:28:32.954Z,97.22
2022-09-16T03:31:57.655Z,97.34
2022-09-16T03:35:14.844Z,97.05
2022-09-16T03:38:19.264Z,96.76
2022-09-16T03:41:22.269Z,96.92
2022-09-16T03:44:33.844Z,96.98
2022-09-16T03:47:36.045Z,97.13
2022-09-16T03:50:38.931Z,97.45
2022-09-16T03:53:41.141Z,97.93
2022-09-16T03:56:43.343Z,98.00
2022-09-16T03:59:45.485Z,96.67
2022-09-16T04:02:47.696Z,96.80
2022-09-16T04:05:53.879Z,96.67
2022-09-16T04:09:01.145Z,96.60
2022-09-16T04:12:04.047Z,96.59
2022-09-16T04:15:06.877Z,96.67
2022-09-16T04:18:09.003Z,97.21
2022-09-16T04:21:11.207Z,96.83
2022-09-16T04:24:13.743Z,96.93
2022-09-16T04:27:16.004Z,96.98
2022-09-16T04:30:18.791Z,97.20
2022-09-16T04:33:21.157Z,97.22
2022-09-16T04:36:23.338Z,97.58
2022-09-16T04:39:25.522Z,97.36
2022-09-16T04:42:27.774Z,97.50
2022-09-16T04:45:29.984Z,97.55
2022-09-16T04:48:32.482Z,96.71
2022-09-16T04:51:34.760Z,96.89
2022-09-16T04:54:36.957Z,97.21
2022-09-16T04:57:39.150Z,97.17
2022-09-16T05:00:41.350Z,96.64
2022-09-16T05:03:46.566Z,96.59
2022-09-16T05:06:48.974Z,96.46
2022-09-16T05:09:51.187Z,95.79
2022-09-16T05:12:53.442Z,96.66
2022-09-16T05:15:55.816Z,96.46
2022-09-16T05:19:04.790Z,96.00
2022-09-16T05:22:08.210Z,96.53
2022-09-16T05:25:11.095Z,96.62
2022-09-16T05:28:13.340Z,95.92
2022-09-16T05:31:18.400Z,96.43
2022-09-16T05:34:32.382Z,97.01
2022-09-16T05:37:41.114Z,96.40
2022-09-16T05:40:47.341Z,96.23
2022-09-16T05:44:01.347Z,96.12
2022-09-16T05:47:08.188Z,96.39
2022-09-16T05:50:20.510Z,96.24
2022-09-16T05:53:27.575Z,96.57
2022-09-16T05:56:31.343Z,96.76
2022-09-16T05:59:39.355Z,96.71
2022-09-16T06:02:44.049Z,96.93
2022-09-16T06:05:49.754Z,96.86
2022-09-16T06:08:59.327Z,96.83
2022-09-16T06:12:02.327Z,96.70
2022-09-16T06:15:05.267Z,96.49
2022-09-16T06:18:07.621Z,96.36
2022-09-16T06:21:12.391Z,96.08
2022-09-16T06:24:17.557Z,96.40
2022-09-16T06:27:21.960Z,96.57
2022-09-16T06:30:26.092Z,97.57
2022-09-16T06:33:31.380Z,97.52
2022-09-16T06:36:40.359Z,96.98
2022-09-16T06:39:47.667Z,96.85
2022-09-16T06:42:57.141Z,96.48
2022-09-16T06:46:05.705Z,96.97
2022-09-16T06:49:11.191Z,97.19
2022-09-16T06:52:13.573Z,97.35
2022-09-16T06:55:26.432Z,97.09
2022-09-16T06:58:33.041Z,97.57
2022-09-16T07:01:37.247Z,97.38
2022-09-16T07:04:39.941Z,96.82
2022-09-16T07:07:46.324Z,97.04
2022-09-16T07:10:57.725Z,96.70
2022-09-16T07:14:03.692Z,96.31
2022-09-16T07:17:06.592Z,96.33
2022-09-16T07:20:09.579Z,95.70
2022-09-16T07:23:11.785Z,95.33
2022-09-16T07:26:22.071Z,94.63
2022-09-16T07:29:24.357Z,93.56
2022-09-16T07:32:26.568Z,93.10
2022-09-16T07:35:28.909Z,87.62
2022-09-16T07:38:36.667Z,83.62
2022-09-16T07:41:44.406Z,79.90
2022-09-16T07:44:46.754Z,79.42
2022-09-16T07:47:50.457Z,77.36
2022-09-16T07:51:01.393Z,79.06
2022-09-16T07:54:14.514Z,77.48
2022-09-16T07:57:21.864Z,78.87
2022-09-16T08:00:32.925Z,79.71
2022-09-16T08:03:41.223Z,79.57
2022-09-16T08:06:51.356Z,79.84
2022-09-16T08:10:00.534Z,80.14
2022-09-16T08:13:24.261Z,76.78
2022-09-16T08:16:30.733Z,77.75
2022-09-16T08:19:37.096Z,77.28
2022-09-16T08:22:42.786Z,77.17
2022-09-16T08:25:57.767Z,75.99
2022-09-16T08:29:10.131Z,76.76
2022-09-16T08:32:18.995Z,78.02
2022-09-16T08:35:23.146Z,78.81
2022-09-16T08:38:28.431Z,79.00
2022-09-16T08:41:54.160Z,79.12
2022-09-16T08:45:54.960Z,79.17
2022-09-16T08:49:10.400Z,79.91
2022-09-16T08:52:16.838Z,80.88
2022-09-16T08:55:31.419Z,82.11
2022-09-16T08:58:46.321Z,82.84
2022-09-16T09:02:24.669Z,82.29
2022-09-16T09:05:45.692Z,82.56
2022-09-16T09:09:03.808Z,83.07
2022-09-16T09:12:12.869Z,83.31
2022-09-16T09:15:40.093Z,81.45
2022-09-16T09:19:09.727Z,80.43
2022-09-16T09:22:31.889Z,81.37
2022-09-16T09:25:58.239Z,78.75
2022-09-16T09:29:27.127Z,76.98
2022-09-16T09:32:55.133Z,76.51
2022-09-16T09:36:23.046Z,76.38
2022-09-16T09:39:31.367Z,77.94
2022-09-16T09:42:44.783Z,77.75
2022-09-16T09:45:58.799Z,77.45
2022-09-16T09:49:28.596Z,76.19
2022-09-16T09:52:56.316Z,75.46
2022-09-16T09:56:18.332Z,76.48
2022-09-16T09:59:26.685Z,76.53
2022-09-16T10:02:30.883Z,76.54
2022-09-16T10:05:34.053Z,77.83
2022-09-16T10:08:38.841Z,78.00
2022-09-16T10:11:55.306Z,78.61
2022-09-16T10:15:00.487Z,77.83
2022-09-16T10:18:12.519Z,79.11
2022-09-16T10:21:17.785Z,79.02
2022-09-16T10:24:37.628Z,77.82
2022-09-16T10:27:42.835Z,75.58
2022-09-16T10:30:51.716Z,76.01
2022-09-16T10:33:54.109Z,72.83
2022-09-16T10:37:13.001Z,76.34
2022-09-16T10:40:17.674Z,78.04
2022-09-16T10:43:21.278Z,77.59
2022-09-16T10:46:23.482Z,78.50
2022-09-16T10:49:37.308Z,79.69
2022-09-16T10:52:45.168Z,80.86
2022-09-16T10:55:58.102Z,79.76
2022-09-16T10:59:09.535Z,81.97
2022-09-16T11:02:38.357Z,79.17
2022-09-16T11:05:46.984Z,78.26
2022-09-16T11:09:27.635Z,80.76
2022-09-16T11:12:36.426Z,81.32
2022-09-16T11:16:10.182Z,81.44
2022-09-16T11:19:21.113Z,79.58
2022-09-16T11:22:47.620Z,78.43
2022-09-16T11:26:18.864Z,80.97
2022-09-16T11:29:48.886Z,82.14
2022-09-16T11:33:17.115Z,75.64
2022-09-16T11:36:33.633Z,78.02
2022-09-16T11:40:00.051Z,80.40
2022-09-16T11:43:02.251Z,75.90
2022-09-16T11:46:33.449Z,76.56
2022-09-16T11:50:08.206Z,77.85
2022-09-16T11:53:35.487Z,79.82
2022-09-16T11:57:04.144Z,79.74
2022-09-16T12:00:10.585Z,79.51
2022-09-16T12:03:15.767Z,79.84
2022-09-16T12:06:22.650Z,80.09
2022-09-16T12:09:34.337Z,79.26
2022-09-16T12:12:40.975Z,78.26
2022-09-16T12:15:53.620Z,79.24
2022-09-16T12:18:59.973Z,79.61
2022-09-16T12:22:17.140Z,78.70
2022-09-16T12:25:38.411Z,77.49
2022-09-16T12:28:55.600Z,76.31
2022-09-16T12:32:05.443Z,77.81
2022-09-16T12:35:15.192Z,76.14
2022-09-16T12:38:20.391Z,77.96
2022-09-16T12:41:34.641Z,78.77
2022-09-16T12:44:51.943Z,79.78
2022-09-16T12:48:15.755Z,80.10
2022-09-16T12:51:37.231Z,79.95
2022-09-16T12:55:07.074Z,79.81
2022-09-16T12:58:35.640Z,79.81
2022-09-16T13:01:48.386Z,81.23
2022-09-16T13:04:54.170Z,81.58
2022-09-16T13:08:03.151Z,81.33
2022-09-16T13:14:44.463Z,80.39
2022-09-16T13:17:48.607Z,80.52
2022-09-16T13:20:57.153Z,81.32
2022-09-16T13:24:06.072Z,81.52
2022-09-16T13:27:31.080Z,79.44
2022-09-16T13:30:36.408Z,80.72
2022-09-16T13:33:40.555Z,82.03
2022-09-16T13:36:43.727Z,81.91
2022-09-16T13:39:50.125Z,80.77
2022-09-16T13:43:13.731Z,80.43
2022-09-16T13:46:34.065Z,80.16
2022-09-16T13:49:46.479Z,81.84
2022-09-16T13:52:50.510Z,81.10
2022-09-16T13:56:00.375Z,82.47
2022-09-16T13:59:20.818Z,83.23
2022-09-16T14:02:57.729Z,84.27
2022-09-16T14:06:00.105Z,84.77
2022-09-16T14:09:24.584Z,83.98
2022-09-16T14:12:57.721Z,85.71
2022-09-16T14:16:00.112Z,86.32
2022-09-16T14:19:08.315Z,85.55
2022-09-16T14:22:10.430Z,86.51
2022-09-16T14:25:30.376Z,87.06
2022-09-16T14:28:33.899Z,87.43
2022-09-16T14:31:39.456Z,86.29
2022-09-16T14:34:41.711Z,86.14
2022-09-16T14:37:46.065Z,86.78
2022-09-16T14:40:48.491Z,86.42
2022-09-16T14:43:51.949Z,87.53
2022-09-16T14:47:08.776Z,87.82
2022-09-16T14:50:28.254Z,87.87
2022-09-16T14:53:36.352Z,88.07
2022-09-16T14:56:40.625Z,88.83
2022-09-16T14:59:43.439Z,88.21
2022-09-16T15:02:53.941Z,86.79
2022-09-16T15:06:01.316Z,86.36
2022-09-16T15:09:19.553Z,87.19
2022-09-16T15:12:35.728Z,87.83
2022-09-16T15:15:44.681Z,88.77
2022-09-16T15:19:04.435Z,89.01
2022-09-16T15:22:14.575Z,89.01
2022-09-16T15:25:29.128Z,88.57
2022-09-16T15:28:31.328Z,88.31
2022-09-16T15:31:37.206Z,88.78
2022-09-16T15:34:39.454Z,89.79
2022-09-16T15:37:41.641Z,88.95
2022-09-16T15:40:43.870Z,89.45
2022-09-16T15:43:46.611Z,89.24
2022-09-16T15:46:49.725Z,88.75
2022-09-16T15:50:02.953Z,90.22
2022-09-16T15:53:10.572Z,90.43
2022-09-16T15:56:23.430Z,90.45
2022-09-16T15:59:34.739Z,90.80
2022-09-16T16:02:50.462Z,90.66
2022-09-16T16:05:54.286Z,90.59
2022-09-16T16:08:58.279Z,91.02
2022-09-16T16:12:01.778Z,91.89
2022-09-16T16:15:04.381Z,91.56
2022-09-16T16:18:08.854Z,92.97
2022-09-16T16:21:13.923Z,92.77
2022-09-16T16:24:16.176Z,92.99
2022-09-16T16:27:18.418Z,93.08
2022-09-16T16:30:20.769Z,93.03
2022-09-16T16:33:22.945Z,91.96
2022-09-16T16:36:25.131Z,91.83
2022-09-16T16:39:27.482Z,91.94
2022-09-16T16:42:29.963Z,91.97
2022-09-16T16:45:32.308Z,92.32
2022-09-16T16:48:35.747Z,92.55
2022-09-16T16:51:37.900Z,92.21
2022-09-16T16:54:43.270Z,91.82
2022-09-16T16:57:45.519Z,92.45
2022-09-16T17:00:48.561Z,92.05
2022-09-16T17:03:50.819Z,91.98
2022-09-16T17:07:14.461Z,92.27
2022-09-16T17:10:15.775Z,92.87
2022-09-16T17:13:17.943Z,92.88
2022-09-16T17:16:22.324Z,93.52
2022-09-16T17:19:26.227Z,93.02
2022-09-16T17:22:28.456Z,93.08
2022-09-16T17:25:30.936Z,92.86
2022-09-16T17:28:33.285Z,92.82
2022-09-16T17:31:36.623Z,92.95
2022-09-16T17:34:38.776Z,92.48
2022-09-16T17:37:41.427Z,92.88
2022-09-16T17:40:43.611Z,94.20
2022-09-16T17:43:45.991Z,94.80
2022-09-16T17:46:48.428Z,95.10
2022-09-16T17:49:50.647Z,94.59
2022-09-16T17:52:53.312Z,92.58
2022-09-16T17:56:21.607Z,93.19
2022-09-16T17:59:25.219Z,93.20
2022-09-16T18:02:27.387Z,94.02
2022-09-16T18:05:33.125Z,95.22
2022-09-16T18:08:36.725Z,94.67
2022-09-16T18:11:40.056Z,94.42
2022-09-16T18:14:42.223Z,94.41
2022-09-16T18:17:44.392Z,94.32
2022-09-16T18:20:54.253Z,93.74
2022-09-16T18:23:58.691Z,93.79
2022-09-16T18:27:02.586Z,93.46
2022-09-16T18:30:05.328Z,92.48
2022-09-16T18:33:09.226Z,93.34
2022-09-16T18:36:14.048Z,93.19
2022-09-16T18:39:17.355Z,94.20
2022-09-16T18:42:19.533Z,94.86
2022-09-16T18:45:22.134Z,94.97
2022-09-16T18:48:24.309Z,95.17
2022-09-16T18:51:34.943Z,95.21
2022-09-16T18:54:37.210Z,95.21
2022-09-16T18:57:39.455Z,95.59
2022-09-16T19:00:41.640Z,95.47
2022-09-16T19:03:44.444Z,95.72
2022-09-16T19:06:50.056Z,95.24
2022-09-16T19:09:52.233Z,94.93
2022-09-16T19:12:54.438Z,95.11
2022-09-16T19:15:57.823Z,95.10
2022-09-16T19:19:01.946Z,95.04
2022-09-16T19:22:06.045Z,94.64
2022-09-16T19:25:08.608Z,94.93
2022-09-16T19:28:10.793Z,93.91
2022-09-16T19:31:14.763Z,93.48
2022-09-16T19:34:17.424Z,93.71
2022-09-16T19:37:20.808Z,93.88
2022-09-16T19:40:23.097Z,94.21
2022-09-16T19:43:25.281Z,94.01
2022-09-16T19:46:28.664Z,94.17
2022-09-16T19:49:30.836Z,94.33
2022-09-16T19:52:35.448Z,94.23
2022-09-16T19:55:37.626Z,94.18
2022-09-16T19:58:43.508Z,94.15
2022-09-16T20:01:46.185Z,94.10
2022-09-16T20:04:48.402Z,93.64
2022-09-16T20:07:50.550Z,93.53
2022-09-16T20:10:52.783Z,92.59
2022-09-16T20:13:57.175Z,93.24
2022-09-16T20:17:00.183Z,93.57
2022-09-16T20:20:02.487Z,93.62
2022-09-16T20:23:04.835Z,93.22
2022-09-16T20:26:09.000Z,93.23
2022-09-16T20:29:11.227Z,92.65
2022-09-16T20:32:13.403Z,93.18
2022-09-16T20:35:15.744Z,92.94
2022-09-16T20:38:24.713Z,93.13
2022-09-16T20:41:29.390Z,93.13
2022-09-16T20:44:32.131Z,93.59
2022-09-16T20:47:34.305Z,93.73
2022-09-16T20:50:38.456Z,93.95
2022-09-16T20:53:41.421Z,94.43
2022-09-16T20:56:45.911Z,93.70
2022-09-16T20:59:48.296Z,93.51
2022-09-16T21:02:52.856Z,94.30
2022-09-16T21:06:00.498Z,95.03
2022-09-16T21:09:05.933Z,94.85
2022-09-16T21:12:10.335Z,95.09
2022-09-16T21:15:12.506Z,94.67
2022-09-16T21:18:14.672Z,94.52
2022-09-16T21:21:19.428Z,94.16
2022-09-16T21:24:22.064Z,93.45
2022-09-16T21:27:24.210Z,93.52
2022-09-16T21:30:27.102Z,93.52
2022-09-16T21:33:31.631Z,94.11
2022-09-16T21:36:35.374Z,94.64
2022-09-16T21:39:37.579Z,94.91
2022-09-16T21:42:40.311Z,94.96
2022-09-16T21:45:44.242Z,94.66
2022-09-16T21:48:47.635Z,93.47
2022-09-16T21:51:52.040Z,93.49
2022-09-16T21:54:54.413Z,93.14
2022-09-16T21:58:03.659Z,93.18
2022-09-16T22:01:21.037Z,93.15
2022-09-16T22:04:24.329Z,93.27
2022-09-16T22:07:26.515Z,93.74
2022-09-16T22:10:29.839Z,93.08
2022-09-16T22:13:33.242Z,93.22
2022-09-16T22:16:38.826Z,92.74
2022-09-16T22:19:41.025Z,92.93
2022-09-16T22:22:43.216Z,92.59
2022-09-16T22:25:45.837Z,92.73
2022-09-16T22:28:48.870Z,92.63
2022-09-16T22:31:51.179Z,92.22
2022-09-16T22:34:53.399Z,91.61
2022-09-16T22:37:55.620Z,91.92
2022-09-16T22:41:08.729Z,92.09
2022-09-16T22:44:11.518Z,92.43
2022-09-16T22:47:13.671Z,91.95
2022-09-16T22:50:16.262Z,92.17
2022-09-16T22:53:18.421Z,92.26
2022-09-16T22:56:24.800Z,91.74
2022-09-16T22:59:26.960Z,92.21
2022-09-16T23:02:29.311Z,92.25
2022-09-16T23:05:31.468Z,92.37
2022-09-16T23:08:35.895Z,92.68
2022-09-16T23:11:38.097Z,92.26
2022-09-16T23:14:40.268Z,92.21
2022-09-16T23:17:42.428Z,92.24
2022-09-16T23:20:44.611Z,92.69
2022-09-16T23:23:49.794Z,92.72
2022-09-16T23:26:52.075Z,93.01
2022-09-16T23:29:54.683Z,93.26
2022-09-16T23:32:57.299Z,93.10
2022-09-16T23:35:59.690Z,93.13
2022-09-16T23:39:02.269Z,93.67
2022-09-16T23:42:04.875Z,94.06
2022-09-16T23:45:07.300Z,93.73
2022-09-16T23:48:09.500Z,93.74
2022-09-16T23:51:12.678Z,94.37
2022-09-16T23:54:15.411Z,94.27
2022-09-16T23:57:17.613Z,94.06
